Time,TemperatureF,DewpointF,PressureIn,WindDirection,WindDirectionDegrees,WindSpeedMPH,WindSpeedGustMPH,Humidity,HourlyPrecipIn,Conditions,Clouds,dailyrainin,SoftwareType,DateUTC
2013-12-08 00:00:00,19.4,13.7,30.34,South,184,0.0,0.0,78,0.00,,,0.00,Wunderground v.1.15,2013-12-08 05:00:00,
2013-12-08 00:04:00,19.4,11.8,30.35,ESE,105,0.0,0.0,72,0.00,,,0.00,Wunderground v.1.15,2013-12-08 05:04:00,
2013-12-08 00:10:00,19.4,12.2,30.35,SSE,159,0.0,0.0,73,0.00,,,0.00,Wunderground v.1.15,2013-12-08 05:10:00,
2013-12-08 00:15:00,19.5,11.9,30.35,SE,131,1.0,1.0,72,0.00,,,0.00,Wunderground v.1.15,2013-12-08 05:15:00,
2013-12-08 00:19:00,19.5,11.6,30.35,SE,131,0.0,0.0,71,0.00,,,0.00,Wunderground v.1.15,2013-12-08 05:19:00,
2013-12-08 00:25:00,19.6,11.7,30.35,SE,131,0.0,1.0,71,0.00,,,0.00,Wunderground v.1.15,2013-12-08 05:25:00,
2013-12-08 00:30:00,19.6,11.7,30.35,SSE,159,0.0,0.0,71,0.00,,,0.00,Wunderground v.1.15,2013-12-08 05:30:00,
2013-12-08 00:40:00,19.8,11.9,30.35,SSE,159,0.0,0.0,71,0.00,,,0.00,Wunderground v.1.15,2013-12-08 05:40:00,
2013-12-08 00:45:00,19.8,11.6,30.35,SSE,159,0.0,0.0,70,0.00,,,0.00,Wunderground v.1.15,2013-12-08 05:45:00,
2013-12-08 00:50:00,19.7,11.5,30.35,SSE,159,0.0,0.0,70,0.00,,,0.00,Wunderground v.1.15,2013-12-08 05:50:00,
2013-12-08 01:00:00,19.3,11.4,30.35,SSE,159,0.0,0.0,71,0.00,,,0.00,Wunderground v.1.15,2013-12-08 06:00:00,
2013-12-08 01:10:00,19.0,11.5,30.36,SSE,159,0.0,0.0,72,0.00,,,0.00,Wunderground v.1.15,2013-12-08 06:10:00,
2013-12-08 01:20:00,19.8,11.9,30.36,South,190,1.0,1.0,71,0.00,,,0.00,Wunderground v.1.15,2013-12-08 06:20:00,
2013-12-08 01:25:00,19.8,11.9,30.36,South,190,0.0,1.0,71,0.00,,,0.00,Wunderground v.1.15,2013-12-08 06:25:00,
2013-12-08 01:30:00,20.1,11.9,30.36,South,184,1.0,2.0,70,0.00,,,0.00,Wunderground v.1.15,2013-12-08 06:30:00,
2013-12-08 01:39:00,20.6,11.7,30.37,ESE,116,1.0,1.0,68,0.00,,,0.00,Wunderground v.1.15,2013-12-08 06:39:00,
2013-12-08 01:44:00,20.5,11.6,30.37,SE,140,1.0,1.0,68,0.00,,,0.00,Wunderground v.1.15,2013-12-08 06:44:00,
2013-12-08 01:50:00,20.6,11.0,30.37,South,181,1.0,1.0,66,0.00,,,0.00,Wunderground v.1.15,2013-12-08 06:50:00,
2013-12-08 02:00:00,20.7,11.1,30.38,SSE,163,1.0,1.0,66,0.00,,,0.00,Wunderground v.1.15,2013-12-08 07:00:00,
2013-12-08 02:10:00,20.6,11.0,30.38,South,186,1.0,1.0,66,0.00,,,0.00,Wunderground v.1.15,2013-12-08 07:10:00,
2013-12-08 02:20:00,20.4,10.8,30.38,ESE,115,0.0,0.0,66,0.00,,,0.00,Wunderground v.1.15,2013-12-08 07:20:00,
2013-12-08 02:25:00,20.2,10.3,30.38,ESE,115,0.0,0.0,65,0.00,,,0.00,Wunderground v.1.15,2013-12-08 07:25:00,
2013-12-08 02:35:00,19.8,10.3,30.38,SE,126,0.0,0.0,66,0.00,,,0.00,Wunderground v.1.15,2013-12-08 07:35:00,
2013-12-08 02:44:00,19.7,10.2,30.38,SE,128,0.0,1.0,66,0.00,,,0.00,Wunderground v.1.15,2013-12-08 07:44:00,
2013-12-08 02:50:00,19.6,9.7,30.39,South,185,0.0,0.0,65,0.00,,,0.00,Wunderground v.1.15,2013-12-08 07:50:00,
2013-12-08 02:55:00,19.7,10.2,30.38,SSE,168,0.0,0.0,66,0.00,,,0.00,Wunderground v.1.15,2013-12-08 07:55:00,
2013-12-08 03:00:00,19.6,10.1,30.39,South,170,0.0,4.0,66,0.00,,,0.00,Wunderground v.1.15,2013-12-08 08:00:00,
2013-12-08 03:09:00,19.2,10.0,30.39,South,176,1.0,1.0,67,0.00,,,0.00,Wunderground v.1.15,2013-12-08 08:09:00,
2013-12-08 03:15:00,19.0,10.2,30.39,South,176,0.0,1.0,68,0.00,,,0.00,Wunderground v.1.15,2013-12-08 08:15:00,
2013-12-08 03:25:00,18.7,9.6,30.39,South,176,0.0,0.0,67,0.00,,,0.00,Wunderground v.1.15,2013-12-08 08:25:00,
2013-12-08 03:30:00,18.5,9.7,30.39,South,176,0.0,0.0,68,0.00,,,0.00,Wunderground v.1.15,2013-12-08 08:30:00,
2013-12-08 03:35:00,18.3,9.5,30.39,South,176,0.0,0.0,68,0.00,,,0.00,Wunderground v.1.15,2013-12-08 08:35:00,
2013-12-08 03:45:00,18.0,9.2,30.40,South,176,0.0,0.0,68,0.00,,,0.00,Wunderground v.1.15,2013-12-08 08:45:00,
2013-12-08 03:50:00,18.1,9.3,30.40,South,176,0.0,0.0,68,0.00,,,0.00,Wunderground v.1.15,2013-12-08 08:50:00,
2013-12-08 03:55:00,17.8,9.3,30.40,South,176,0.0,0.0,69,0.00,,,0.00,Wunderground v.1.15,2013-12-08 08:55:00,
2013-12-08 04:00:00,17.9,9.4,30.40,South,176,0.0,0.0,69,0.00,,,0.00,Wunderground v.1.15,2013-12-08 09:00:00,
2013-12-08 04:10:00,17.4,9.3,30.40,South,176,0.0,1.0,70,0.00,,,0.00,Wunderground v.1.15,2013-12-08 09:10:00,
2013-12-08 04:20:00,17.0,9.5,30.40,South,176,0.0,0.0,72,0.00,,,0.00,Wunderground v.1.15,2013-12-08 09:20:00,
2013-12-08 04:25:00,16.9,9.1,30.41,South,176,0.0,2.0,71,0.00,,,0.00,Wunderground v.1.15,2013-12-08 09:25:00,
2013-12-08 04:35:00,16.5,9.4,30.40,South,176,0.0,0.0,73,0.00,,,0.00,Wunderground v.1.15,2013-12-08 09:35:00,
2013-12-08 04:45:00,16.7,9.8,30.40,South,176,0.0,0.0,74,0.00,,,0.00,Wunderground v.1.15,2013-12-08 09:45:00,
2013-12-08 04:50:00,16.8,10.5,30.41,South,176,0.0,0.0,76,0.00,,,0.00,Wunderground v.1.15,2013-12-08 09:50:00,
2013-12-08 05:00:00,16.9,10.9,30.41,South,176,0.0,0.0,77,0.00,,,0.00,Wunderground v.1.15,2013-12-08 10:00:00,
2013-12-08 05:10:00,17.0,11.3,30.41,South,176,0.0,0.0,78,0.00,,,0.00,Wunderground v.1.15,2013-12-08 10:10:00,
2013-12-08 05:15:00,16.8,10.8,30.41,South,176,0.0,0.0,77,0.00,,,0.00,Wunderground v.1.15,2013-12-08 10:15:00,
2013-12-08 05:20:00,16.8,11.1,30.41,South,176,0.0,0.0,78,0.00,,,0.00,Wunderground v.1.15,2013-12-08 10:20:00,
2013-12-08 05:30:00,16.4,10.4,30.42,South,176,0.0,0.0,77,0.00,,,0.00,Wunderground v.1.15,2013-12-08 10:30:00,
2013-12-08 05:35:00,16.3,10.6,30.41,South,176,0.0,0.0,78,0.00,,,0.00,Wunderground v.1.15,2013-12-08 10:35:00,
2013-12-08 05:45:00,15.8,10.4,30.42,South,176,0.0,0.0,79,0.00,,,0.00,Wunderground v.1.15,2013-12-08 10:45:00,
2013-12-08 05:50:00,15.8,10.4,30.43,South,176,0.0,0.0,79,0.00,,,0.00,Wunderground v.1.15,2013-12-08 10:50:00,
2013-12-08 06:00:00,15.5,10.4,30.44,South,176,0.0,0.0,80,0.00,,,0.00,Wunderground v.1.15,2013-12-08 11:00:00,
2013-12-08 06:10:00,15.0,10.2,30.44,South,176,0.0,0.0,81,0.00,,,0.00,Wunderground v.1.15,2013-12-08 11:10:00,
2013-12-08 06:15:00,14.8,10.0,30.45,South,176,0.0,0.0,81,0.00,,,0.00,Wunderground v.1.15,2013-12-08 11:15:00,
2013-12-08 06:24:00,14.5,10.0,30.45,South,176,0.0,0.0,82,0.00,,,0.00,Wunderground v.1.15,2013-12-08 11:24:00,
2013-12-08 06:30:00,14.3,9.8,30.45,South,176,0.0,0.0,82,0.00,,,0.00,Wunderground v.1.15,2013-12-08 11:30:00,
2013-12-08 06:40:00,14.4,9.4,30.45,South,176,0.0,1.0,80,0.00,,,0.00,Wunderground v.1.15,2013-12-08 11:40:00,
2013-12-08 06:50:00,14.1,9.1,30.45,South,176,1.0,1.0,80,0.00,,,0.00,Wunderground v.1.15,2013-12-08 11:50:00,
2013-12-08 06:55:00,13.8,9.3,30.46,South,176,1.0,1.0,82,0.00,,,0.00,Wunderground v.1.15,2013-12-08 11:55:00,
2013-12-08 07:00:00,13.6,9.4,30.46,South,176,0.0,0.0,83,0.00,,,0.00,Wunderground v.1.15,2013-12-08 12:00:00,
2013-12-08 07:10:00,13.1,9.2,30.47,South,176,0.0,0.0,84,0.00,,,0.00,Wunderground v.1.15,2013-12-08 12:10:00,
2013-12-08 07:15:00,12.9,9.0,30.47,South,176,0.0,0.0,84,0.00,,,0.00,Wunderground v.1.15,2013-12-08 12:15:00,
2013-12-08 07:20:00,12.9,9.0,30.47,South,176,0.0,0.0,84,0.00,,,0.00,Wunderground v.1.15,2013-12-08 12:20:00,
2013-12-08 07:30:00,13.3,9.4,30.48,South,176,0.0,0.0,84,0.00,,,0.00,Wunderground v.1.15,2013-12-08 12:30:00,
2013-12-08 07:39:00,13.6,9.7,30.48,South,176,0.0,0.0,84,0.00,,,0.00,Wunderground v.1.15,2013-12-08 12:39:00,
2013-12-08 07:44:00,13.8,10.1,30.48,South,176,0.0,0.0,85,0.00,,,0.00,Wunderground v.1.15,2013-12-08 12:44:00,
2013-12-08 07:50:00,14.0,10.3,30.48,South,176,0.0,0.0,85,0.00,,,0.00,Wunderground v.1.15,2013-12-08 12:50:00,
2013-12-08 08:30:00,17.7,12.9,30.47,South,176,0.0,0.0,81,0.00,,,0.00,Wunderground v.1.15,2013-12-08 13:30:00,
2013-12-08 08:40:00,19.0,12.7,30.47,South,176,0.0,0.0,76,0.00,,,0.00,Wunderground v.1.15,2013-12-08 13:40:00,
2013-12-08 08:45:00,19.6,12.0,30.47,South,176,0.0,0.0,72,0.00,,,0.00,Wunderground v.1.15,2013-12-08 13:45:00,
2013-12-08 08:55:00,20.5,11.6,30.47,South,176,0.0,0.0,68,0.00,,,0.00,Wunderground v.1.15,2013-12-08 13:55:00,
2013-12-08 09:00:00,20.9,11.3,30.47,South,176,0.0,0.0,66,0.00,,,0.00,Wunderground v.1.15,2013-12-08 14:00:00,
2013-12-08 09:10:00,21.5,11.5,30.48,South,176,0.0,0.0,65,0.00,,,0.00,Wunderground v.1.15,2013-12-08 14:10:00,
2013-12-08 09:15:00,21.7,11.7,30.48,South,175,0.0,0.0,65,0.00,,,0.00,Wunderground v.1.15,2013-12-08 14:15:00,
2013-12-08 09:20:00,22.0,12.4,30.49,South,171,0.0,1.0,66,0.00,,,0.00,Wunderground v.1.15,2013-12-08 14:20:00,
2013-12-08 09:25:00,22.1,12.5,30.49,SSE,153,0.0,1.0,66,0.00,,,0.00,Wunderground v.1.15,2013-12-08 14:25:00,
2013-12-08 09:35:00,22.1,11.1,30.48,SSE,153,0.0,0.0,62,0.00,,,0.00,Wunderground v.1.15,2013-12-08 14:35:00,
2013-12-08 09:40:00,22.4,11.3,30.48,SSE,153,0.0,1.0,62,0.00,,,0.00,Wunderground v.1.15,2013-12-08 14:40:00,
2013-12-08 09:50:00,22.8,10.6,30.49,NNW,339,0.0,0.0,59,0.00,,,0.00,Wunderground v.1.15,2013-12-08 14:50:00,
2013-12-08 09:55:00,23.0,11.5,30.49,NNW,339,0.0,0.0,61,0.00,,,0.00,Wunderground v.1.15,2013-12-08 14:55:00,
2013-12-08 10:00:00,23.2,10.6,30.49,South,187,1.0,4.0,58,0.00,,,0.00,Wunderground v.1.15,2013-12-08 15:00:00,
2013-12-08 10:10:00,23.1,10.5,30.50,SE,126,1.0,1.0,58,0.00,,,0.00,Wunderground v.1.15,2013-12-08 15:10:00,
2013-12-08 10:20:00,23.4,10.4,30.49,SSE,159,0.0,0.0,57,0.00,,,0.00,Wunderground v.1.15,2013-12-08 15:20:00,
2013-12-08 10:30:00,23.5,10.9,30.49,South,188,2.0,2.0,58,0.00,,,0.00,Wunderground v.1.15,2013-12-08 15:30:00,
2013-12-08 10:40:00,23.5,10.5,30.49,South,187,1.0,1.0,57,0.00,,,0.00,Wunderground v.1.15,2013-12-08 15:40:00,
2013-12-08 10:50:00,23.8,10.8,30.49,ESE,110,1.0,2.0,57,0.00,,,0.00,Wunderground v.1.15,2013-12-08 15:50:00,
2013-12-08 10:55:00,23.8,11.2,30.49,ESE,122,1.0,2.0,58,0.00,,,0.00,Wunderground v.1.15,2013-12-08 15:55:00,
2013-12-08 11:00:00,23.8,11.2,30.48,ESE,122,1.0,1.0,58,0.00,,,0.00,Wunderground v.1.15,2013-12-08 16:00:00,
2013-12-08 11:10:00,24.1,11.0,30.48,South,175,0.0,0.0,57,0.00,,,0.00,Wunderground v.1.15,2013-12-08 16:10:00,
2013-12-08 11:15:00,24.2,11.5,30.48,South,176,0.0,0.0,58,0.00,,,0.00,Wunderground v.1.15,2013-12-08 16:15:00,
2013-12-08 11:20:00,24.3,12.0,30.48,NE,54,0.0,0.0,59,0.00,,,0.00,Wunderground v.1.15,2013-12-08 16:20:00,
2013-12-08 11:30:00,24.3,11.6,30.47,SSE,155,0.0,4.0,58,0.00,,,0.00,Wunderground v.1.15,2013-12-08 16:30:00,
2013-12-08 11:40:00,24.4,10.9,30.46,SSW,196,2.0,2.0,56,0.00,,,0.00,Wunderground v.1.15,2013-12-08 16:40:00,
2013-12-08 11:45:00,24.3,11.6,30.46,South,184,2.0,2.0,58,0.00,,,0.00,Wunderground v.1.15,2013-12-08 16:45:00,
2013-12-08 11:55:00,24.3,11.2,30.46,SSW,209,2.0,4.0,57,0.00,,,0.00,Wunderground v.1.15,2013-12-08 16:55:00,
2013-12-08 12:00:00,24.4,11.7,30.45,SSW,207,2.0,2.0,58,0.00,,,0.00,Wunderground v.1.15,2013-12-08 17:00:00,
2013-12-08 12:10:00,24.5,11.4,30.45,ENE,75,3.0,4.0,57,0.00,,,0.00,Wunderground v.1.15,2013-12-08 17:10:00,
2013-12-08 12:20:00,24.4,10.9,30.44,East,89,2.0,4.0,56,0.00,,,0.00,Wunderground v.1.15,2013-12-08 17:20:00,
2013-12-08 12:30:00,24.7,11.6,30.44,SSE,153,2.0,2.0,57,0.00,,,0.00,Wunderground v.1.15,2013-12-08 17:30:00,
2013-12-08 12:40:00,24.9,11.8,30.45,South,183,1.0,1.0,57,0.00,,,0.00,Wunderground v.1.15,2013-12-08 17:40:00,
2013-12-08 12:50:00,24.9,11.8,30.45,ESE,109,1.0,1.0,57,0.00,,,0.00,Wunderground v.1.15,2013-12-08 17:50:00,
2013-12-08 12:55:00,25.1,11.2,30.45,WSW,253,1.0,1.0,55,0.00,,,0.00,Wunderground v.1.15,2013-12-08 17:55:00,
2013-12-08 13:00:00,25.1,11.2,30.45,WSW,238,1.0,1.0,55,0.00,,,0.00,Wunderground v.1.15,2013-12-08 18:00:00,
2013-12-08 13:10:00,25.1,11.2,30.45,ESE,110,2.0,2.0,55,0.00,,,0.00,Wunderground v.1.15,2013-12-08 18:10:00,
2013-12-08 13:15:00,25.2,10.9,30.44,WSW,258,1.0,2.0,54,0.00,,,0.00,Wunderground v.1.15,2013-12-08 18:15:00,
2013-12-08 13:25:00,25.2,10.4,30.44,East,98,2.0,3.0,53,0.00,,,0.00,Wunderground v.1.15,2013-12-08 18:25:00,
2013-12-08 13:30:00,25.1,10.3,30.44,South,187,2.0,2.0,53,0.00,,,0.00,Wunderground v.1.15,2013-12-08 18:30:00,
2013-12-08 13:35:00,25.2,10.4,30.44,South,179,2.0,2.0,53,0.00,,,0.00,Wunderground v.1.15,2013-12-08 18:35:00,
2013-12-08 13:40:00,25.2,10.0,30.44,ESE,104,2.0,3.0,52,0.00,,,0.00,Wunderground v.1.15,2013-12-08 18:40:00,
2013-12-08 13:50:00,25.5,10.3,30.44,SSW,200,2.0,2.0,52,0.00,,,0.00,Wunderground v.1.15,2013-12-08 18:50:00,
2013-12-08 14:00:00,25.6,10.4,30.43,WSW,238,1.0,1.0,52,0.00,,,0.00,Wunderground v.1.15,2013-12-08 19:00:00,
2013-12-08 14:10:00,25.4,10.2,30.44,South,191,2.0,2.0,52,0.00,,,0.00,Wunderground v.1.15,2013-12-08 19:10:00,
2013-12-08 14:20:00,25.7,10.9,30.44,SSW,192,1.0,2.0,53,0.00,,,0.00,Wunderground v.1.15,2013-12-08 19:20:00,
2013-12-08 14:25:00,25.9,11.1,30.43,SSE,164,0.0,2.0,53,0.00,,,0.00,Wunderground v.1.15,2013-12-08 19:25:00,
2013-12-08 14:35:00,25.8,10.1,30.42,South,187,2.0,2.0,51,0.00,,,0.00,Wunderground v.1.15,2013-12-08 19:35:00,
2013-12-08 14:40:00,25.6,10.4,30.42,ESE,122,2.0,2.0,52,0.00,,,0.00,Wunderground v.1.15,2013-12-08 19:40:00,
2013-12-08 14:45:00,25.7,10.5,30.42,ESE,107,1.0,2.0,52,0.00,,,0.00,Wunderground v.1.15,2013-12-08 19:45:00,
2013-12-08 14:50:00,26.1,11.3,30.43,East,101,1.0,2.0,53,0.00,,,0.00,Wunderground v.1.15,2013-12-08 19:50:00,
2013-12-08 15:00:00,26.1,10.0,30.43,SSW,203,1.0,1.0,50,0.00,,,0.00,Wunderground v.1.15,2013-12-08 20:00:00,
2013-12-08 15:10:00,25.6,10.0,30.44,South,182,1.0,1.0,51,0.00,,,0.00,Wunderground v.1.15,2013-12-08 20:10:00,
2013-12-08 15:20:00,25.2,9.6,30.44,South,182,0.0,0.0,51,0.00,,,0.00,Wunderground v.1.15,2013-12-08 20:20:00,
2013-12-08 15:30:00,25.1,9.5,30.45,South,182,0.0,0.0,51,0.00,,,0.00,Wunderground v.1.15,2013-12-08 20:30:00,
2013-12-08 15:40:00,24.8,10.1,30.45,South,182,0.0,0.0,53,0.00,,,0.00,Wunderground v.1.15,2013-12-08 20:40:00,
2013-12-08 15:50:00,24.5,9.8,30.45,South,182,0.0,0.0,53,0.00,,,0.00,Wunderground v.1.15,2013-12-08 20:50:00,
2013-12-08 16:00:00,24.2,9.5,30.46,South,182,0.0,0.0,53,0.00,,,0.00,Wunderground v.1.15,2013-12-08 21:00:00,
2013-12-08 16:10:00,23.9,9.2,30.46,South,182,0.0,0.0,53,0.00,,,0.00,Wunderground v.1.15,2013-12-08 21:10:00,
2013-12-08 16:15:00,23.8,9.6,30.46,South,182,0.0,0.0,54,0.00,,,0.00,Wunderground v.1.15,2013-12-08 21:15:00,
2013-12-08 16:25:00,23.5,9.3,30.45,South,182,0.0,0.0,54,0.00,,,0.00,Wunderground v.1.15,2013-12-08 21:25:00,
2013-12-08 16:30:00,23.3,9.9,30.45,South,182,0.0,0.0,56,0.00,,,0.00,Wunderground v.1.15,2013-12-08 21:30:00,
2013-12-08 16:35:00,23.0,10.0,30.45,South,182,0.0,0.0,57,0.00,,,0.00,Wunderground v.1.15,2013-12-08 21:35:00,
2013-12-08 16:45:00,22.5,11.1,30.45,South,182,0.0,0.0,61,0.00,,,0.00,Wunderground v.1.15,2013-12-08 21:45:00,
2013-12-08 16:55:00,22.1,11.8,30.45,South,182,0.0,0.0,64,0.00,,,0.00,Wunderground v.1.15,2013-12-08 21:55:00,
2013-12-08 17:00:00,21.8,11.8,30.46,South,182,0.0,0.0,65,0.00,,,0.00,Wunderground v.1.15,2013-12-08 22:00:00,
2013-12-08 17:10:00,21.3,11.7,30.46,South,182,0.0,0.0,66,0.00,,,0.00,Wunderground v.1.15,2013-12-08 22:10:00,
2013-12-08 17:20:00,20.7,11.8,30.46,South,182,0.0,0.0,68,0.00,,,0.00,Wunderground v.1.15,2013-12-08 22:20:00,
2013-12-08 17:30:00,20.0,11.8,30.46,South,182,0.0,0.0,70,0.00,,,0.00,Wunderground v.1.15,2013-12-08 22:30:00,
2013-12-08 17:40:00,19.5,11.6,30.46,South,182,0.0,0.0,71,0.00,,,0.00,Wunderground v.1.15,2013-12-08 22:40:00,
2013-12-08 17:45:00,19.4,11.8,30.46,South,182,0.0,0.0,72,0.00,,,0.00,Wunderground v.1.15,2013-12-08 22:45:00,
2013-12-08 17:50:00,19.2,11.6,30.46,South,182,0.0,0.0,72,0.00,,,0.00,Wunderground v.1.15,2013-12-08 22:50:00,
2013-12-08 18:00:00,18.9,11.4,30.46,South,182,0.0,0.0,72,0.00,,,0.00,Wunderground v.1.15,2013-12-08 23:00:00,
2013-12-08 18:05:00,18.7,11.5,30.46,South,182,0.0,0.0,73,0.00,,,0.00,Wunderground v.1.15,2013-12-08 23:05:00,
2013-12-08 18:15:00,18.7,11.8,30.46,South,182,0.0,0.0,74,0.00,,,0.00,Wunderground v.1.15,2013-12-08 23:15:00,
2013-12-08 18:25:00,18.5,11.9,30.45,South,182,0.0,0.0,75,0.00,,,0.00,Wunderground v.1.15,2013-12-08 23:25:00,
2013-12-08 18:35:00,18.4,11.8,30.45,South,182,0.0,0.0,75,0.00,,,0.00,Wunderground v.1.15,2013-12-08 23:35:00,
2013-12-08 18:45:00,18.1,12.1,30.45,South,182,0.0,0.0,77,0.00,,,0.00,Wunderground v.1.15,2013-12-08 23:45:00,
2013-12-08 18:50:00,18.0,11.7,30.45,South,182,0.0,0.0,76,0.00,,,0.00,Wunderground v.1.15,2013-12-08 23:50:00,
2013-12-08 19:00:00,18.1,12.1,30.45,South,182,0.0,0.0,77,0.00,,,0.00,Wunderground v.1.15,2013-12-09 00:00:00,
2013-12-08 19:10:00,18.4,12.7,30.44,South,182,0.0,0.0,78,0.00,,,0.00,Wunderground v.1.15,2013-12-09 00:10:00,
2013-12-08 19:20:00,18.7,13.0,30.43,South,182,0.0,0.0,78,0.00,,,0.00,Wunderground v.1.15,2013-12-09 00:20:00,
2013-12-08 19:30:00,18.9,12.9,30.44,South,182,0.0,0.0,77,0.00,,,0.00,Wunderground v.1.15,2013-12-09 00:30:00,
2013-12-08 19:40:00,19.3,13.6,30.45,South,182,0.0,0.0,78,0.00,,,0.00,Wunderground v.1.15,2013-12-09 00:40:00,
2013-12-08 19:50:00,19.5,13.8,30.45,South,182,0.0,0.0,78,0.00,,,0.00,Wunderground v.1.15,2013-12-09 00:50:00,
2013-12-08 19:55:00,19.6,13.9,30.45,South,182,0.0,0.0,78,0.00,,,0.00,Wunderground v.1.15,2013-12-09 00:55:00,
2013-12-08 20:00:00,19.7,14.0,30.45,South,182,0.0,0.0,78,0.00,,,0.00,Wunderground v.1.15,2013-12-09 01:00:00,
2013-12-08 20:10:00,19.8,14.0,30.46,South,182,0.0,0.0,78,0.00,,,0.00,Wunderground v.1.15,2013-12-09 01:10:00,
2013-12-08 20:20:00,19.9,14.1,30.46,South,182,0.0,0.0,78,0.00,,,0.00,Wunderground v.1.15,2013-12-09 01:20:00,
2013-12-08 20:30:00,20.0,14.2,30.45,South,182,0.0,0.0,78,0.00,,,0.00,Wunderground v.1.15,2013-12-09 01:30:00,
2013-12-08 20:35:00,20.0,14.2,30.44,South,182,0.0,0.0,78,0.00,,,0.00,Wunderground v.1.15,2013-12-09 01:35:00,
2013-12-08 20:45:00,20.2,14.7,30.44,South,182,0.0,0.0,79,0.00,,,0.00,Wunderground v.1.15,2013-12-09 01:45:00,
2013-12-08 20:50:00,20.2,14.4,30.44,South,182,0.0,0.0,78,0.00,,,0.00,Wunderground v.1.15,2013-12-09 01:50:00,
2013-12-08 21:00:00,20.4,14.6,30.45,South,182,0.0,0.0,78,0.00,,,0.00,Wunderground v.1.15,2013-12-09 02:00:00,
2013-12-08 21:10:00,20.4,14.6,30.46,South,182,0.0,0.0,78,0.00,,,0.00,Wunderground v.1.15,2013-12-09 02:10:00,
2013-12-08 21:15:00,20.4,14.6,30.45,South,182,0.0,0.0,78,0.00,,,0.00,Wunderground v.1.15,2013-12-09 02:15:00,
2013-12-08 21:20:00,20.4,14.6,30.45,South,182,0.0,0.0,78,0.00,,,0.00,Wunderground v.1.15,2013-12-09 02:20:00,
2013-12-08 21:30:00,20.4,14.6,30.45,South,182,0.0,0.0,78,0.00,,,0.00,Wunderground v.1.15,2013-12-09 02:30:00,
2013-12-08 21:40:00,20.6,14.8,30.45,South,182,0.0,0.0,78,0.00,,,0.00,Wunderground v.1.15,2013-12-09 02:40:00,
2013-12-08 21:45:00,20.6,14.8,30.45,South,182,0.0,0.0,78,0.00,,,0.00,Wunderground v.1.15,2013-12-09 02:45:00,
2013-12-08 21:55:00,20.6,14.8,30.44,South,182,0.0,0.0,78,0.00,,,0.00,Wunderground v.1.15,2013-12-09 02:55:00,
2013-12-08 22:00:00,20.7,14.6,30.44,South,182,0.0,0.0,77,0.00,,,0.00,Wunderground v.1.15,2013-12-09 03:00:00,
2013-12-08 22:05:00,20.7,14.9,30.44,South,182,0.0,0.0,78,0.00,,,0.00,Wunderground v.1.15,2013-12-09 03:05:00,
2013-12-08 22:15:00,20.7,14.9,30.43,South,182,0.0,0.0,78,0.00,,,0.00,Wunderground v.1.15,2013-12-09 03:15:00,
2013-12-08 22:20:00,20.7,14.6,30.44,South,182,0.0,0.0,77,0.00,,,0.00,Wunderground v.1.15,2013-12-09 03:20:00,
2013-12-08 22:25:00,20.8,14.4,30.43,South,182,0.0,0.0,76,0.00,,,0.00,Wunderground v.1.15,2013-12-09 03:25:00,
2013-12-08 22:35:00,20.9,14.8,30.44,South,182,0.0,0.0,77,0.00,,,0.00,Wunderground v.1.15,2013-12-09 03:35:00,
2013-12-08 22:40:00,20.9,14.8,30.43,South,182,0.0,0.0,77,0.00,,,0.00,Wunderground v.1.15,2013-12-09 03:40:00,
2013-12-08 22:50:00,20.9,15.4,30.44,South,182,0.0,0.0,79,0.00,,,0.00,Wunderground v.1.15,2013-12-09 03:50:00,
2013-12-08 22:55:00,20.9,15.1,30.43,South,182,0.0,0.0,78,0.00,,,0.00,Wunderground v.1.15,2013-12-09 03:55:00,
2013-12-08 23:00:00,20.9,14.8,30.43,South,182,0.0,0.0,77,0.00,,,0.00,Wunderground v.1.15,2013-12-09 04:00:00,
2013-12-08 23:09:00,20.9,15.7,30.43,South,182,0.0,0.0,80,0.00,,,0.00,Wunderground v.1.15,2013-12-09 04:09:00,
2013-12-08 23:15:00,20.8,15.3,30.42,South,182,0.0,0.0,79,0.00,,,0.00,Wunderground v.1.15,2013-12-09 04:15:00,
2013-12-08 23:25:00,20.8,15.6,30.42,South,182,0.0,0.0,80,0.00,,,0.00,Wunderground v.1.15,2013-12-09 04:25:00,
2013-12-08 23:35:00,20.7,15.5,30.41,South,182,0.0,0.0,80,0.00,,,0.00,Wunderground v.1.15,2013-12-09 04:35:00,
2013-12-08 23:45:00,20.8,15.3,30.41,South,182,0.0,0.0,79,0.00,,,0.00,Wunderground v.1.15,2013-12-09 04:45:00,
2013-12-08 23:50:00,20.8,15.0,30.40,South,182,0.0,0.0,78,0.00,,,0.00,Wunderground v.1.15,2013-12-09 04:50:00,
2013-12-08 23:55:00,20.7,14.6,30.40,South,182,0.0,0.0,77,0.00,,,0.00,Wunderground v.1.15,2013-12-09 04:55:00,